首页
METAR-TAF:

METAR-TAF

机场 :

馬里伯爾愛德華·盧希揚機場

马里博尔, 斯洛文尼亚

纬度: 46-29N, 经度: 015-41E, 海拔: 264米

当前天气观测

该预报发布于35分钟前的03:00 UTC
风速1节,风向西
温度 17°C
湿度 82%
气压 1025 hPa
能见度10公里或以上

METAR: LJMB 220300Z AUTO 26001KT 9999 NSC 17/14 Q1025

时间: 05:35 (03:35 UTC)

预报

该预报发布于1小时和35分钟前的02:00 UTC
预报有效从22日的 03点(UTC)到 23日的 03点(UTC)
风速5节,风向北转东北
能见度10公里或以上
少量云层高于4000英尺
散云层高于6000英尺
几率 30% :
短暂存在
从 22日的 12点(UTC)到 22日的 18点(UTC)
多云层高于3500英尺, 塔状积云.
阵雨

TAF: LJMB 220200Z 2203/2303 03005KT 9999 FEW040 SCT060 PROB30 TEMPO 2212/2218 SHRA BKN035TCU

超过4000个机场的气象观测和天气预报(METAR&TAF报告)。

可查询的气象台以黄色和红色小点在地图上表示。

将鼠标移到小点上方,可查看气象台名称。

然后点击查看天气观测和预报。

如需切换地图:点击带黑十字的绿色按钮放大地图;点击带横线的绿色按钮缩小地图;或者点击绿色箭头查看邻近地区的地图。


METAR-TAF: